createdAt,value
2023-01-30T00:00:19.594Z,6.38
2023-01-30T00:01:44.139Z,6.32
2023-01-30T00:03:06.556Z,5.88
2023-01-30T00:04:29.936Z,5.45
2023-01-30T00:05:54.220Z,5.25
2023-01-30T00:07:20.068Z,6.20
2023-01-30T00:08:42.469Z,5.00
2023-01-30T00:10:06.492Z,6.55
2023-01-30T00:11:30.182Z,6.07
2023-01-30T00:12:53.203Z,5.72
2023-01-30T00:14:17.000Z,6.35
2023-01-30T00:15:39.437Z,5.55
2023-01-30T00:17:02.880Z,6.10
2023-01-30T00:18:26.356Z,5.88
2023-01-30T00:19:49.810Z,6.00
2023-01-30T00:21:15.706Z,6.10
2023-01-30T00:22:42.359Z,6.15
2023-01-30T00:24:08.225Z,6.50
2023-01-30T00:25:31.629Z,6.28
2023-01-30T00:26:55.265Z,6.93
2023-01-30T00:28:18.758Z,6.38
2023-01-30T00:29:43.195Z,6.90
2023-01-30T00:31:08.017Z,6.60
2023-01-30T00:32:31.530Z,7.88
2023-01-30T00:33:55.006Z,7.65
2023-01-30T00:35:17.453Z,8.20
2023-01-30T00:36:42.279Z,8.40
2023-01-30T00:38:04.758Z,6.82
2023-01-30T00:39:28.284Z,6.13
2023-01-30T00:40:51.083Z,6.07
2023-01-30T00:42:31.892Z,7.13
2023-01-30T00:44:12.968Z,6.90
2023-01-30T00:45:56.690Z,6.03
2023-01-30T00:47:20.159Z,6.82
2023-01-30T00:48:42.654Z,6.35
2023-01-30T00:50:06.934Z,6.95
2023-01-30T00:51:29.337Z,6.68
2023-01-30T00:52:54.125Z,6.68
2023-01-30T00:54:18.318Z,6.82
2023-01-30T00:55:40.965Z,6.85
2023-01-30T00:57:04.481Z,6.80
2023-01-30T00:58:26.976Z,6.15
2023-01-30T00:59:50.547Z,6.65
2023-01-30T01:01:14.171Z,7.63
2023-01-30T01:02:37.723Z,6.95
2023-01-30T01:04:00.157Z,7.38
2023-01-30T01:05:23.601Z,7.20
2023-01-30T01:06:47.102Z,7.57
2023-01-30T01:08:12.568Z,6.05
2023-01-30T01:09:36.095Z,6.38
2023-01-30T01:10:58.518Z,6.63
2023-01-30T01:12:22.113Z,7.95
2023-01-30T01:13:45.663Z,7.85
2023-01-30T01:15:09.811Z,7.07
2023-01-30T01:16:35.312Z,6.50
2023-01-30T01:17:58.735Z,7.00
2023-01-30T01:19:21.263Z,7.22
2023-01-30T01:20:44.730Z,6.50
2023-01-30T01:22:08.203Z,6.15
2023-01-30T01:23:32.063Z,7.30
2023-01-30T01:24:55.455Z,6.68
2023-01-30T01:26:18.938Z,6.43
2023-01-30T01:27:41.364Z,6.25
2023-01-30T01:29:05.020Z,7.72
2023-01-30T01:30:27.527Z,6.18
2023-01-30T01:31:50.950Z,6.25
2023-01-30T01:33:14.333Z,6.70
2023-01-30T01:34:38.046Z,6.60
2023-01-30T01:36:00.473Z,7.30
2023-01-30T01:37:24.033Z,7.20
2023-01-30T01:38:47.785Z,7.13
2023-01-30T01:40:35.879Z,7.47
2023-01-30T01:41:59.236Z,6.47
2023-01-30T01:43:26.091Z,7.22
2023-01-30T01:45:18.091Z,6.88
2023-01-30T01:46:45.790Z,7.47
2023-01-30T01:48:13.478Z,7.13
2023-01-30T01:49:39.694Z,6.43
2023-01-30T01:51:04.861Z,6.88
2023-01-30T01:52:28.747Z,5.40
2023-01-30T01:53:57.579Z,7.20
2023-01-30T01:55:20.524Z,7.53
2023-01-30T01:56:47.109Z,7.80
2023-01-30T01:58:11.680Z,6.00
2023-01-30T01:59:38.397Z,6.03
2023-01-30T02:01:02.058Z,7.40
2023-01-30T02:02:25.755Z,7.20
2023-01-30T02:03:53.435Z,6.35
2023-01-30T02:05:17.849Z,6.65
2023-01-30T02:06:44.051Z,6.85
2023-01-30T02:08:08.389Z,7.07
2023-01-30T02:09:36.015Z,5.88
2023-01-30T02:11:04.910Z,6.72
2023-01-30T02:12:28.672Z,6.38
2023-01-30T02:13:52.580Z,7.07
2023-01-30T02:15:15.522Z,6.80
2023-01-30T02:16:39.403Z,6.90
2023-01-30T02:18:01.836Z,5.50
2023-01-30T02:19:36.259Z,7.70
2023-01-30T02:21:14.046Z,5.85
2023-01-30T02:23:19.381Z,7.10
2023-01-30T02:25:12.087Z,7.38
2023-01-30T02:27:06.798Z,7.55
2023-01-30T02:29:11.423Z,7.00
2023-01-30T02:31:10.667Z,6.57
2023-01-30T02:32:40.839Z,7.30
2023-01-30T02:34:20.464Z,6.60
2023-01-30T02:35:50.056Z,6.97
2023-01-30T02:37:21.350Z,7.13
2023-01-30T02:38:56.290Z,5.93
2023-01-30T02:40:36.968Z,6.13
2023-01-30T02:42:05.260Z,6.53
2023-01-30T02:43:33.939Z,6.82
2023-01-30T02:45:02.430Z,6.22
2023-01-30T02:46:27.063Z,5.20
2023-01-30T02:47:57.099Z,6.65
2023-01-30T02:49:25.141Z,8.23
2023-01-30T02:50:52.183Z,6.95
2023-01-30T02:52:17.307Z,8.25
2023-01-30T02:53:41.709Z,7.18
2023-01-30T02:55:18.207Z,6.63
2023-01-30T02:56:47.032Z,7.63
2023-01-30T02:58:10.910Z,7.20
2023-01-30T02:59:37.725Z,7.55
2023-01-30T03:01:17.470Z,6.90
2023-01-30T03:03:11.161Z,8.00
2023-01-30T03:05:00.526Z,7.55
2023-01-30T03:06:35.093Z,6.28
2023-01-30T03:08:05.214Z,7.30
2023-01-30T03:09:36.212Z,6.63
2023-01-30T03:11:02.213Z,6.63
2023-01-30T03:12:34.014Z,7.70
2023-01-30T03:14:02.362Z,7.57
2023-01-30T03:15:31.648Z,7.22
2023-01-30T03:16:57.642Z,8.05
2023-01-30T03:18:22.679Z,7.82
2023-01-30T03:19:45.384Z,7.47
2023-01-30T03:21:09.977Z,6.45
2023-01-30T03:22:33.377Z,7.57
2023-01-30T03:23:56.884Z,8.52
2023-01-30T03:25:21.834Z,8.02
2023-01-30T03:26:55.270Z,7.55
2023-01-30T03:28:20.754Z,8.00
2023-01-30T03:29:44.262Z,5.68
2023-01-30T03:31:07.350Z,7.93
2023-01-30T03:32:30.977Z,7.45
2023-01-30T03:33:55.753Z,8.40
2023-01-30T03:35:19.547Z,7.97
2023-01-30T03:36:43.234Z,8.27
2023-01-30T03:38:06.047Z,7.63
2023-01-30T03:39:29.582Z,6.50
2023-01-30T03:40:53.095Z,7.80
2023-01-30T03:42:16.588Z,7.50
2023-01-30T03:43:38.999Z,8.35
2023-01-30T03:45:02.375Z,6.93
2023-01-30T03:46:25.990Z,7.15
2023-01-30T03:47:48.530Z,7.60
2023-01-30T03:49:13.395Z,7.75
2023-01-30T03:50:36.051Z,6.75
2023-01-30T03:51:59.433Z,7.68
2023-01-30T03:53:22.865Z,6.40
2023-01-30T03:54:46.323Z,8.10
2023-01-30T03:56:09.808Z,7.55
2023-01-30T03:57:32.330Z,7.50
2023-01-30T03:58:55.835Z,8.05
2023-01-30T04:00:19.121Z,7.30
2023-01-30T04:01:42.494Z,6.28
2023-01-30T04:03:04.910Z,7.03
2023-01-30T04:04:29.703Z,6.93
2023-01-30T04:05:52.928Z,8.05
2023-01-30T04:07:16.300Z,6.63
2023-01-30T04:08:38.778Z,8.18
2023-01-30T04:10:02.205Z,7.07
2023-01-30T04:11:25.758Z,7.57
2023-01-30T04:12:49.611Z,6.78
2023-01-30T04:14:12.155Z,7.32
2023-01-30T04:15:35.559Z,6.95
2023-01-30T04:16:58.556Z,7.82
2023-01-30T04:18:21.993Z,7.93
2023-01-30T04:19:46.940Z,8.18
2023-01-30T04:21:10.548Z,7.93
2023-01-30T04:22:36.511Z,6.93
2023-01-30T04:24:01.964Z,7.05
2023-01-30T04:25:24.399Z,7.95
2023-01-30T04:26:47.864Z,7.68
2023-01-30T04:28:10.327Z,7.25
2023-01-30T04:29:33.806Z,7.13
2023-01-30T04:30:56.391Z,6.82
2023-01-30T04:32:19.984Z,7.10
2023-01-30T04:33:43.443Z,6.90
2023-01-30T04:35:08.956Z,6.82
2023-01-30T04:36:32.378Z,7.53
2023-01-30T04:37:55.775Z,7.05
2023-01-30T04:39:21.186Z,7.30
2023-01-30T04:40:50.073Z,6.00
2023-01-30T04:42:13.464Z,7.18
2023-01-30T04:43:36.988Z,7.20
2023-01-30T04:44:59.426Z,7.22
2023-01-30T04:46:22.939Z,6.63
2023-01-30T04:47:46.473Z,6.40
2023-01-30T04:49:11.407Z,5.32
2023-01-30T04:50:39.737Z,6.35
2023-01-30T04:52:03.359Z,6.78
2023-01-30T04:53:25.923Z,6.75
2023-01-30T04:54:49.365Z,6.57
2023-01-30T04:56:12.928Z,7.45
2023-01-30T04:57:35.474Z,7.50
2023-01-30T04:58:58.936Z,6.53
2023-01-30T05:00:22.568Z,5.60
2023-01-30T05:01:46.079Z,6.32
2023-01-30T05:03:08.590Z,6.93
2023-01-30T05:04:32.136Z,6.63
2023-01-30T05:05:55.894Z,6.07
2023-01-30T05:07:19.354Z,7.18
2023-01-30T05:08:41.770Z,6.20
2023-01-30T05:10:05.851Z,6.13
2023-01-30T05:11:30.860Z,6.05
2023-01-30T05:12:54.275Z,6.35
2023-01-30T05:14:19.626Z,7.55
2023-01-30T05:15:42.102Z,6.10
2023-01-30T05:17:05.538Z,7.20
2023-01-30T05:18:28.151Z,7.80
2023-01-30T05:19:51.545Z,7.70
2023-01-30T05:21:16.833Z,6.43
2023-01-30T05:22:40.301Z,7.10
2023-01-30T05:24:03.776Z,6.18
2023-01-30T05:25:28.819Z,6.53
2023-01-30T05:26:52.265Z,7.45
2023-01-30T05:28:15.723Z,7.45
2023-01-30T05:29:39.191Z,8.15
2023-01-30T05:31:03.350Z,7.35
2023-01-30T05:32:27.296Z,7.35
2023-01-30T05:33:52.318Z,7.50
2023-01-30T05:35:16.532Z,6.80
2023-01-30T05:36:40.695Z,7.57
2023-01-30T05:38:04.128Z,8.20
2023-01-30T05:39:27.548Z,7.60
2023-01-30T05:41:00.169Z,8.10
2023-01-30T05:42:23.665Z,7.25
2023-01-30T05:43:50.919Z,7.03
2023-01-30T05:45:14.365Z,7.32
2023-01-30T05:46:37.870Z,7.97
2023-01-30T05:48:01.740Z,7.47
2023-01-30T05:49:25.390Z,7.90
2023-01-30T05:50:49.141Z,7.55
2023-01-30T05:52:13.943Z,6.45
2023-01-30T05:53:37.397Z,6.85
2023-01-30T05:55:00.823Z,8.00
2023-01-30T05:56:24.699Z,6.63
2023-01-30T05:57:47.222Z,5.85
2023-01-30T05:59:13.248Z,7.22
2023-01-30T06:00:35.784Z,7.82
2023-01-30T06:01:59.170Z,7.88
2023-01-30T06:03:21.697Z,6.82
2023-01-30T06:04:45.406Z,7.65
2023-01-30T06:06:09.348Z,5.93
2023-01-30T06:07:34.168Z,5.90
2023-01-30T06:08:58.212Z,8.32
2023-01-30T06:10:21.848Z,6.47
2023-01-30T06:11:45.373Z,7.10
2023-01-30T06:13:10.943Z,6.20
2023-01-30T06:14:35.373Z,7.60
2023-01-30T06:15:58.844Z,6.65
2023-01-30T06:17:25.251Z,6.50
2023-01-30T06:18:49.079Z,7.22
2023-01-30T06:20:14.800Z,6.85
2023-01-30T06:21:38.217Z,6.63
2023-01-30T06:23:04.203Z,7.35
2023-01-30T06:24:27.573Z,6.97
2023-01-30T06:25:53.603Z,6.65
2023-01-30T06:27:17.103Z,6.97
2023-01-30T06:28:40.527Z,5.63
2023-01-30T06:30:04.427Z,6.70
2023-01-30T06:31:28.094Z,6.22
2023-01-30T06:32:51.315Z,7.05
2023-01-30T06:34:15.053Z,5.85
2023-01-30T06:35:38.557Z,6.28
2023-01-30T06:37:02.060Z,6.28
2023-01-30T06:38:27.095Z,6.28
2023-01-30T06:39:50.610Z,6.80
2023-01-30T06:41:14.159Z,6.63
2023-01-30T06:42:37.601Z,6.68
2023-01-30T06:44:01.063Z,6.80
2023-01-30T06:45:23.457Z,7.20
2023-01-30T06:46:46.830Z,6.00
2023-01-30T06:48:11.032Z,6.68
2023-01-30T06:49:34.411Z,6.40
2023-01-30T06:50:57.908Z,6.45
2023-01-30T06:52:21.312Z,8.00
2023-01-30T06:53:46.213Z,5.97
2023-01-30T06:55:12.017Z,6.78
2023-01-30T06:56:35.455Z,6.88
2023-01-30T06:58:06.769Z,5.70
2023-01-30T06:59:30.245Z,5.70
2023-01-30T07:00:56.665Z,6.38
2023-01-30T07:02:24.025Z,6.43
2023-01-30T07:03:47.503Z,6.63
2023-01-30T07:05:11.777Z,6.88
2023-01-30T07:06:35.320Z,6.00
2023-01-30T07:07:57.845Z,5.45
2023-01-30T07:09:22.625Z,6.13
2023-01-30T07:10:46.619Z,4.93
2023-01-30T07:12:10.157Z,6.07
2023-01-30T07:13:33.542Z,5.05
2023-01-30T07:14:56.968Z,5.57
2023-01-30T07:16:20.489Z,4.55
2023-01-30T07:17:43.946Z,5.20
2023-01-30T07:19:07.325Z,6.07
2023-01-30T07:20:30.255Z,5.47
2023-01-30T07:21:53.692Z,4.15
2023-01-30T07:23:17.881Z,5.57
2023-01-30T07:24:43.657Z,5.60
2023-01-30T07:26:07.840Z,5.07
2023-01-30T07:27:31.242Z,5.43
2023-01-30T07:28:54.676Z,4.93
2023-01-30T07:30:18.615Z,4.85
2023-01-30T07:31:42.064Z,5.03
2023-01-30T07:33:05.723Z,4.90
2023-01-30T07:34:29.454Z,3.63
2023-01-30T07:35:52.843Z,4.80
2023-01-30T07:37:16.662Z,4.32
2023-01-30T07:38:40.096Z,4.88
2023-01-30T07:40:04.347Z,3.58
2023-01-30T07:41:27.732Z,3.85
2023-01-30T07:42:58.484Z,3.47
2023-01-30T07:44:22.116Z,3.92
2023-01-30T07:45:47.112Z,2.35
2023-01-30T07:47:10.685Z,3.10
2023-01-30T07:48:34.111Z,3.97
2023-01-30T07:49:57.519Z,3.33
2023-01-30T07:51:20.871Z,3.40
2023-01-30T07:52:43.267Z,3.05
2023-01-30T07:54:06.698Z,3.17
2023-01-30T07:55:31.550Z,2.95
2023-01-30T07:56:55.043Z,3.08
2023-01-30T07:58:18.479Z,3.47
2023-01-30T07:59:42.862Z,3.35
2023-01-30T08:01:06.802Z,2.75
2023-01-30T08:02:30.339Z,3.22
2023-01-30T08:03:53.769Z,2.75
2023-01-30T08:05:17.354Z,2.35
2023-01-30T08:06:40.880Z,2.00
2023-01-30T08:08:04.443Z,2.45
2023-01-30T08:09:27.863Z,2.80
2023-01-30T08:10:52.687Z,2.83
2023-01-30T08:12:16.104Z,3.47
2023-01-30T08:13:39.468Z,2.92
2023-01-30T08:15:03.005Z,2.65
2023-01-30T08:16:26.508Z,3.13
2023-01-30T08:17:56.256Z,2.63
2023-01-30T08:19:19.897Z,2.75
2023-01-30T08:20:44.609Z,2.75
2023-01-30T08:22:08.035Z,2.53
2023-01-30T08:23:32.992Z,2.38
2023-01-30T08:24:56.440Z,2.00
2023-01-30T08:26:21.312Z,2.15
2023-01-30T08:27:44.755Z,2.70
2023-01-30T08:29:08.145Z,2.40
2023-01-30T08:30:31.971Z,2.30
2023-01-30T08:31:58.800Z,2.15
2023-01-30T08:33:22.558Z,1.83
2023-01-30T08:34:46.133Z,1.92
2023-01-30T08:36:10.381Z,2.10
2023-01-30T08:37:33.745Z,2.45
2023-01-30T08:38:57.130Z,1.92
2023-01-30T08:40:20.977Z,2.70
2023-01-30T08:41:46.001Z,2.42
2023-01-30T08:43:09.808Z,2.28
2023-01-30T08:44:33.224Z,2.60
2023-01-30T08:45:57.126Z,2.53
2023-01-30T08:47:20.519Z,2.35
2023-01-30T08:48:49.973Z,2.38
2023-01-30T08:50:13.789Z,2.80
2023-01-30T08:51:37.224Z,3.00
2023-01-30T08:53:05.561Z,2.08
2023-01-30T08:54:29.032Z,2.00
2023-01-30T08:55:52.947Z,2.20
2023-01-30T08:57:17.838Z,1.98
2023-01-30T08:58:43.731Z,2.42
2023-01-30T09:00:08.996Z,2.50
2023-01-30T09:01:32.485Z,1.90
2023-01-30T09:02:56.067Z,2.90
2023-01-30T09:04:19.456Z,1.67
2023-01-30T09:05:42.893Z,2.50
2023-01-30T09:07:06.414Z,2.22
2023-01-30T09:08:29.941Z,2.05
2023-01-30T09:09:53.591Z,2.03
2023-01-30T09:11:17.005Z,2.15
2023-01-30T09:12:41.863Z,2.03
2023-01-30T09:14:05.301Z,1.48
2023-01-30T09:15:28.848Z,2.08
2023-01-30T09:16:55.603Z,1.30
2023-01-30T09:18:19.293Z,1.60
2023-01-30T09:19:42.686Z,1.50
2023-01-30T09:21:07.329Z,1.55
2023-01-30T09:22:30.769Z,1.60
2023-01-30T09:23:56.575Z,1.58
2023-01-30T09:25:21.006Z,2.20
2023-01-30T09:26:45.460Z,1.42
2023-01-30T09:28:10.324Z,1.48
2023-01-30T09:29:33.714Z,1.38
2023-01-30T09:30:59.180Z,1.52
2023-01-30T09:32:22.694Z,1.38
2023-01-30T09:33:46.190Z,1.95
2023-01-30T09:35:09.712Z,1.90
2023-01-30T09:36:33.147Z,1.88
2023-01-30T09:37:56.514Z,1.35
2023-01-30T09:39:19.931Z,1.27
2023-01-30T09:40:53.485Z,1.67
2023-01-30T09:42:31.506Z,1.98
2023-01-30T09:44:21.308Z,2.10
2023-01-30T09:46:01.020Z,1.70
2023-01-30T09:47:29.715Z,1.65
2023-01-30T09:48:58.869Z,1.73
2023-01-30T09:50:34.568Z,2.03
2023-01-30T09:52:04.618Z,1.70
2023-01-30T09:53:34.821Z,1.35
2023-01-30T09:55:02.380Z,1.40
2023-01-30T09:56:26.083Z,1.35
2023-01-30T09:57:50.557Z,1.40
2023-01-30T09:59:22.770Z,1.77
2023-01-30T10:00:48.209Z,1.50
2023-01-30T10:02:26.990Z,1.17
2023-01-30T10:04:00.946Z,1.60
2023-01-30T10:05:26.584Z,1.15
2023-01-30T10:06:57.681Z,1.45
2023-01-30T10:08:40.336Z,1.00
2023-01-30T10:10:11.211Z,1.33
2023-01-30T10:11:48.200Z,1.08
2023-01-30T10:13:26.892Z,1.73
2023-01-30T10:15:03.454Z,1.00
2023-01-30T10:16:29.875Z,0.80
2023-01-30T10:18:19.741Z,1.10
2023-01-30T10:20:04.801Z,0.90
2023-01-30T10:21:37.767Z,1.23
2023-01-30T10:23:14.315Z,1.48
2023-01-30T10:24:45.355Z,1.65
2023-01-30T10:26:14.288Z,1.30
2023-01-30T10:27:38.498Z,1.77
2023-01-30T10:29:07.611Z,1.42
2023-01-30T10:30:33.017Z,1.80
2023-01-30T10:32:02.129Z,1.33
2023-01-30T10:33:29.640Z,1.50
2023-01-30T10:34:54.551Z,1.55
2023-01-30T10:36:22.266Z,1.58
2023-01-30T10:37:51.677Z,1.77
2023-01-30T10:39:25.243Z,1.98
2023-01-30T10:40:53.539Z,1.65
2023-01-30T10:42:19.775Z,1.65
2023-01-30T10:43:45.315Z,1.73
2023-01-30T10:45:13.459Z,1.58
2023-01-30T10:46:54.584Z,1.73
2023-01-30T10:48:42.496Z,1.73
2023-01-30T10:50:17.329Z,2.20
2023-01-30T10:51:48.498Z,2.67
2023-01-30T10:53:17.051Z,1.60
2023-01-30T10:54:55.354Z,1.55
2023-01-30T10:56:21.807Z,1.60
2023-01-30T10:57:54.802Z,1.95
2023-01-30T10:59:25.171Z,2.10
2023-01-30T11:00:53.811Z,1.20
2023-01-30T11:02:26.283Z,1.75
2023-01-30T11:03:53.069Z,2.22
2023-01-30T11:05:17.811Z,1.50
2023-01-30T11:06:41.604Z,1.30
2023-01-30T11:08:05.517Z,1.98
2023-01-30T11:09:40.760Z,1.80
2023-01-30T11:11:26.654Z,1.65
2023-01-30T11:12:52.380Z,1.52
2023-01-30T11:14:16.081Z,1.80
2023-01-30T11:15:42.714Z,1.70
2023-01-30T11:17:06.242Z,1.98
2023-01-30T11:19:17.827Z,1.73
2023-01-30T11:20:17.358Z,1.83
2023-01-30T11:21:44.532Z,1.77
2023-01-30T11:23:10.042Z,1.42
2023-01-30T11:24:40.335Z,2.22
2023-01-30T11:26:11.254Z,1.75
2023-01-30T11:27:36.422Z,1.65
2023-01-30T11:28:59.937Z,2.13
2023-01-30T11:30:25.824Z,2.15
2023-01-30T11:31:52.320Z,1.88
2023-01-30T11:33:17.814Z,2.40
2023-01-30T11:34:44.611Z,1.70
2023-01-30T11:36:13.649Z,1.77
2023-01-30T11:37:38.279Z,2.25
2023-01-30T11:39:03.695Z,2.30
2023-01-30T11:40:31.088Z,1.50
2023-01-30T11:42:04.591Z,1.80
2023-01-30T11:43:30.293Z,2.00
2023-01-30T11:45:10.785Z,1.65
2023-01-30T11:46:41.719Z,2.42
2023-01-30T11:48:23.459Z,1.40
2023-01-30T11:50:02.619Z,2.63
2023-01-30T11:51:28.041Z,2.00
2023-01-30T11:52:51.944Z,2.70
2023-01-30T11:54:17.851Z,2.13
2023-01-30T11:55:47.129Z,2.20
2023-01-30T11:57:18.539Z,1.90
2023-01-30T11:58:46.179Z,3.05
2023-01-30T12:00:18.128Z,1.92
2023-01-30T12:01:41.913Z,1.92
2023-01-30T12:03:10.743Z,1.85
2023-01-30T12:04:34.639Z,2.30
2023-01-30T12:06:01.152Z,1.90
2023-01-30T12:07:26.420Z,2.80
2023-01-30T12:08:54.794Z,1.90
2023-01-30T12:10:29.947Z,2.88
2023-01-30T12:11:53.764Z,1.83
2023-01-30T12:13:21.754Z,1.48
2023-01-30T12:14:48.606Z,1.75
2023-01-30T12:16:19.020Z,1.92
2023-01-30T12:17:47.665Z,1.08
2023-01-30T12:19:20.293Z,2.05
2023-01-30T12:20:50.384Z,1.45
2023-01-30T12:22:22.167Z,2.08
2023-01-30T12:23:49.776Z,2.03
2023-01-30T12:25:17.460Z,1.90
2023-01-30T12:26:47.058Z,2.03
2023-01-30T12:28:15.523Z,2.78
2023-01-30T12:29:42.501Z,1.70
2023-01-30T12:31:10.003Z,2.42
2023-01-30T12:32:35.300Z,1.83
2023-01-30T12:33:59.127Z,2.22
2023-01-30T12:35:25.613Z,2.63
2023-01-30T12:36:55.895Z,1.92
2023-01-30T12:38:32.226Z,1.98
2023-01-30T12:40:02.461Z,2.10
2023-01-30T12:41:43.492Z,2.08
2023-01-30T12:43:34.284Z,1.90
2023-01-30T12:45:07.944Z,1.35
2023-01-30T12:46:46.137Z,1.77
2023-01-30T12:48:30.232Z,2.03
2023-01-30T12:50:03.681Z,1.77
2023-01-30T12:51:44.693Z,2.13
2023-01-30T12:53:25.142Z,2.40
2023-01-30T12:54:54.672Z,1.75
2023-01-30T12:56:50.415Z,1.58
2023-01-30T12:58:18.041Z,1.88
2023-01-30T12:59:49.377Z,1.80
2023-01-30T13:01:22.337Z,1.65
2023-01-30T13:02:55.903Z,1.65
2023-01-30T13:04:25.973Z,1.55
2023-01-30T13:06:06.068Z,1.58
2023-01-30T13:07:34.021Z,1.13
2023-01-30T13:09:09.343Z,1.80
2023-01-30T13:10:36.200Z,1.83
2023-01-30T13:12:03.515Z,1.85
2023-01-30T13:13:30.496Z,1.45
2023-01-30T13:14:59.106Z,1.45
2023-01-30T13:16:28.586Z,2.03
2023-01-30T13:18:02.166Z,1.80
2023-01-30T13:19:40.481Z,1.67
2023-01-30T13:21:09.541Z,1.52
2023-01-30T13:22:39.216Z,1.60
2023-01-30T13:24:15.727Z,1.58
2023-01-30T13:25:46.016Z,1.25
2023-01-30T13:27:14.884Z,1.10
2023-01-30T13:28:40.978Z,1.50
2023-01-30T13:30:07.527Z,1.90
2023-01-30T13:31:33.815Z,1.65
2023-01-30T13:32:59.744Z,1.58
2023-01-30T13:34:29.676Z,1.40
2023-01-30T13:35:55.557Z,0.90
2023-01-30T13:37:20.102Z,1.77
2023-01-30T13:38:49.370Z,1.67
2023-01-30T13:40:18.426Z,1.92
2023-01-30T13:41:45.363Z,1.48
2023-01-30T13:43:17.185Z,1.20
2023-01-30T13:44:43.296Z,1.30
2023-01-30T13:46:11.099Z,1.33
2023-01-30T13:47:44.095Z,2.05
2023-01-30T13:49:13.877Z,1.50
2023-01-30T13:50:51.008Z,1.60
2023-01-30T13:52:22.136Z,1.35
2023-01-30T13:53:51.666Z,2.13
2023-01-30T13:55:26.800Z,1.83
2023-01-30T13:56:55.154Z,1.50
2023-01-30T13:58:33.759Z,1.52
2023-01-30T14:00:29.766Z,1.27
2023-01-30T14:02:26.739Z,1.45
2023-01-30T14:03:50.690Z,1.75
2023-01-30T14:05:14.246Z,2.38
2023-01-30T14:06:39.117Z,1.80
2023-01-30T14:08:02.623Z,1.30
2023-01-30T14:09:28.800Z,1.83
2023-01-30T14:10:55.598Z,2.42
2023-01-30T14:12:21.134Z,2.47
2023-01-30T14:13:52.898Z,2.78
2023-01-30T14:15:31.703Z,2.20
2023-01-30T14:16:56.604Z,1.92
2023-01-30T14:18:23.992Z,2.20
2023-01-30T14:20:00.286Z,2.10
2023-01-30T14:21:25.100Z,1.80
2023-01-30T14:22:53.472Z,1.90
2023-01-30T14:24:24.986Z,1.02
2023-01-30T14:25:50.587Z,1.20
2023-01-30T14:27:31.953Z,0.85
2023-01-30T14:28:55.772Z,1.13
2023-01-30T14:30:38.951Z,1.10
2023-01-30T14:32:02.453Z,0.90
2023-01-30T14:33:38.070Z,0.70
2023-01-30T14:35:25.823Z,0.30
2023-01-30T14:36:49.659Z,0.77
2023-01-30T14:38:14.309Z,1.45
2023-01-30T14:39:42.138Z,0.98
2023-01-30T14:41:26.067Z,1.23
2023-01-30T14:43:43.467Z,0.70
2023-01-30T14:45:14.949Z,0.65
2023-01-30T14:46:54.827Z,0.30
2023-01-30T14:48:30.155Z,0.10
2023-01-30T14:49:53.908Z,0.22
2023-01-30T14:51:24.115Z,0.65
2023-01-30T14:52:49.499Z,0.68
2023-01-30T14:54:27.662Z,1.00
2023-01-30T14:56:02.091Z,0.85
2023-01-30T14:57:32.554Z,0.68
2023-01-30T14:59:02.162Z,1.38
2023-01-30T15:00:29.242Z,1.15
2023-01-30T15:02:07.959Z,1.55
2023-01-30T15:03:33.328Z,2.10
2023-01-30T15:05:04.133Z,0.68
2023-01-30T15:06:28.969Z,0.90
2023-01-30T15:07:54.931Z,1.20
2023-01-30T15:09:19.325Z,1.00
2023-01-30T15:11:05.030Z,1.20
2023-01-30T15:12:54.029Z,1.80
2023-01-30T15:14:22.257Z,1.10
2023-01-30T15:15:52.904Z,1.10
2023-01-30T15:17:23.466Z,0.95
2023-01-30T15:19:10.528Z,1.38
2023-01-30T15:20:43.343Z,0.60
2023-01-30T15:22:16.332Z,0.80
2023-01-30T15:24:00.663Z,0.85
2023-01-30T15:25:46.376Z,1.60
2023-01-30T15:27:16.008Z,0.82
2023-01-30T15:28:47.502Z,1.08
2023-01-30T15:30:22.466Z,0.80
2023-01-30T15:31:55.788Z,1.13
2023-01-30T15:33:30.835Z,1.10
2023-01-30T15:34:57.939Z,2.25
2023-01-30T15:36:25.691Z,1.30
2023-01-30T15:37:50.605Z,1.23
2023-01-30T15:39:20.829Z,1.52
2023-01-30T15:40:44.308Z,1.15
2023-01-30T15:42:09.147Z,1.00
2023-01-30T15:44:04.948Z,1.25
2023-01-30T15:45:40.910Z,0.93
2023-01-30T15:47:17.408Z,1.10
2023-01-30T15:48:53.800Z,1.33
2023-01-30T15:50:17.941Z,1.20
2023-01-30T15:51:41.615Z,1.52
2023-01-30T15:53:05.072Z,1.50
2023-01-30T15:54:28.617Z,1.05
2023-01-30T15:55:52.583Z,1.15
2023-01-30T15:57:21.942Z,0.98
2023-01-30T15:58:46.284Z,1.75
2023-01-30T16:00:27.382Z,1.23
2023-01-30T16:02:01.006Z,2.10
2023-01-30T16:03:26.609Z,1.00
2023-01-30T16:04:50.655Z,1.08
2023-01-30T16:06:25.606Z,1.70
2023-01-30T16:07:50.238Z,1.30
2023-01-30T16:09:21.712Z,1.15
2023-01-30T16:10:46.435Z,1.35
2023-01-30T16:12:25.306Z,1.77
2023-01-30T16:13:48.756Z,1.85
2023-01-30T16:15:19.849Z,1.30
2023-01-30T16:16:47.074Z,1.15
2023-01-30T16:18:19.143Z,1.38
2023-01-30T16:19:42.743Z,1.40
2023-01-30T16:21:07.902Z,1.33
2023-01-30T16:22:34.896Z,1.27
2023-01-30T16:24:04.218Z,1.15
2023-01-30T16:25:29.791Z,1.40
2023-01-30T16:26:56.289Z,5.70
2023-01-30T16:28:22.006Z,2.75
2023-01-30T16:29:50.610Z,1.55
2023-01-30T16:31:17.580Z,1.60
2023-01-30T16:32:41.393Z,1.77
2023-01-30T16:34:06.597Z,1.55
2023-01-30T16:35:34.075Z,1.80
2023-01-30T16:37:00.855Z,1.52
2023-01-30T16:38:37.261Z,1.45
2023-01-30T16:40:06.233Z,2.22
2023-01-30T16:41:30.966Z,1.75
2023-01-30T16:42:58.397Z,2.00
2023-01-30T16:44:23.315Z,1.83
2023-01-30T16:46:22.404Z,2.30
2023-01-30T16:47:45.987Z,1.83
2023-01-30T16:49:19.399Z,1.88
2023-01-30T16:50:42.905Z,1.55
2023-01-30T16:52:12.746Z,1.40
2023-01-30T16:53:36.182Z,1.60
2023-01-30T16:55:01.568Z,1.70
2023-01-30T16:56:24.142Z,2.63
2023-01-30T16:57:53.079Z,1.15
2023-01-30T16:59:21.338Z,1.60
2023-01-30T17:00:45.029Z,1.33
2023-01-30T17:02:08.753Z,1.50
2023-01-30T17:03:35.802Z,1.77
2023-01-30T17:05:14.733Z,1.67
2023-01-30T17:06:39.943Z,1.98
2023-01-30T17:08:03.459Z,2.15
2023-01-30T17:09:42.941Z,1.38
2023-01-30T17:11:06.795Z,1.67
2023-01-30T17:12:48.375Z,1.88
2023-01-30T17:14:23.301Z,1.20
2023-01-30T17:15:46.736Z,1.73
2023-01-30T17:17:10.573Z,1.25
2023-01-30T17:18:33.982Z,1.70
2023-01-30T17:19:59.620Z,1.17
2023-01-30T17:21:26.462Z,1.40
2023-01-30T17:22:52.438Z,1.40
2023-01-30T17:24:17.645Z,1.63
2023-01-30T17:25:44.246Z,1.42
2023-01-30T17:27:08.673Z,1.33
2023-01-30T17:28:32.086Z,1.73
2023-01-30T17:29:55.564Z,1.80
2023-01-30T17:31:20.298Z,1.88
2023-01-30T17:32:43.820Z,1.45
2023-01-30T17:34:07.288Z,1.60
2023-01-30T17:35:30.841Z,1.60
2023-01-30T17:36:56.323Z,1.77
2023-01-30T17:38:19.960Z,1.85
2023-01-30T17:39:43.416Z,2.20
2023-01-30T17:41:09.851Z,1.73
2023-01-30T17:42:33.303Z,2.00
2023-01-30T17:43:56.734Z,1.58
2023-01-30T17:45:20.674Z,2.30
2023-01-30T17:46:46.133Z,2.88
2023-01-30T17:48:10.432Z,2.40
2023-01-30T17:49:34.342Z,2.20
2023-01-30T17:50:57.859Z,1.83
2023-01-30T17:52:23.055Z,2.40
2023-01-30T17:53:46.606Z,1.55
2023-01-30T17:55:13.187Z,1.70
2023-01-30T17:56:38.469Z,1.15
2023-01-30T17:58:02.193Z,2.22
2023-01-30T17:59:25.730Z,2.42
2023-01-30T18:00:49.166Z,1.77
2023-01-30T18:02:12.634Z,1.67
2023-01-30T18:03:36.220Z,2.20
2023-01-30T18:04:59.775Z,1.95
2023-01-30T18:06:23.293Z,1.77
2023-01-30T18:07:48.179Z,2.70
2023-01-30T18:09:14.445Z,2.08
2023-01-30T18:10:37.899Z,2.42
2023-01-30T18:12:03.931Z,2.15
2023-01-30T18:13:27.532Z,2.53
2023-01-30T18:14:51.069Z,1.88
2023-01-30T18:16:18.547Z,2.75
2023-01-30T18:17:46.814Z,3.00
2023-01-30T18:19:13.211Z,2.33
2023-01-30T18:20:36.680Z,2.22
2023-01-30T18:22:00.237Z,1.92
2023-01-30T18:23:25.096Z,1.98
2023-01-30T18:24:48.559Z,2.53
2023-01-30T18:26:13.435Z,2.78
2023-01-30T18:27:37.036Z,2.38
2023-01-30T18:29:00.616Z,3.50
2023-01-30T18:30:24.993Z,2.45
2023-01-30T18:31:48.624Z,1.63
2023-01-30T18:33:12.102Z,2.28
2023-01-30T18:34:37.608Z,2.22
2023-01-30T18:36:04.053Z,1.88
2023-01-30T18:37:27.509Z,2.80
2023-01-30T18:38:53.587Z,3.20
2023-01-30T18:40:17.972Z,2.08
2023-01-30T18:41:41.901Z,2.55
2023-01-30T18:43:05.333Z,2.72
2023-01-30T18:44:28.829Z,2.25
2023-01-30T18:45:55.458Z,2.47
2023-01-30T18:47:18.828Z,2.08
2023-01-30T18:48:42.483Z,2.63
2023-01-30T18:50:06.563Z,2.47
2023-01-30T18:51:33.524Z,2.40
2023-01-30T18:52:58.547Z,2.35
2023-01-30T18:54:25.166Z,2.17
2023-01-30T18:55:51.245Z,2.58
2023-01-30T18:57:14.674Z,1.98
2023-01-30T18:58:38.367Z,2.90
2023-01-30T19:00:01.913Z,2.40
2023-01-30T19:01:27.307Z,2.53
2023-01-30T19:02:54.129Z,3.03
2023-01-30T19:04:17.610Z,3.22
2023-01-30T19:05:41.079Z,2.70
2023-01-30T19:07:06.904Z,2.83
2023-01-30T19:08:30.545Z,2.33
2023-01-30T19:09:56.470Z,2.38
2023-01-30T19:11:39.513Z,2.20
2023-01-30T19:13:20.586Z,2.95
2023-01-30T19:14:44.089Z,2.78
2023-01-30T19:16:07.923Z,2.72
2023-01-30T19:17:31.668Z,3.83
2023-01-30T19:18:55.720Z,2.33
2023-01-30T19:20:22.211Z,2.53
2023-01-30T19:21:47.631Z,2.20
2023-01-30T19:23:11.073Z,2.60